Time,TemperatureF,DewpointF,PressureIn,WindDirection,WindDirectionDegrees,WindSpeedMPH,WindSpeedGustMPH,Humidity,HourlyPrecipIn,Conditions,Clouds,dailyrainin,SoftwareType,DateUTC
2013-01-10 00:04:00,38.5,38.2,30.11,WSW,247,0.0,-999.0,99,-99.99,,,0.00,Acu-Link.com,2013-01-10 05:04:00,
2013-01-10 00:19:00,38.3,38.0,30.11,West,270,0.0,-999.0,99,-99.99,,,0.00,Acu-Link.com,2013-01-10 05:19:00,
2013-01-10 00:35:00,38.7,38.4,30.10,ENE,67,0.0,-999.0,99,-99.99,,,0.00,Acu-Link.com,2013-01-10 05:35:00,
2013-01-10 00:50:00,38.3,38.0,30.10,ESE,112,0.0,-999.0,99,-99.99,,,0.00,Acu-Link.com,2013-01-10 05:50:00,
2013-01-10 01:05:00,38.1,37.8,30.10,ENE,67,0.0,-999.0,99,-99.99,,,0.00,Acu-Link.com,2013-01-10 06:05:00,
2013-01-10 01:21:00,38.1,37.8,30.10,NE,45,0.0,-999.0,99,-99.99,,,0.00,Acu-Link.com,2013-01-10 06:21:00,
2013-01-10 01:36:00,38.1,37.8,30.10,ENE,67,0.0,-999.0,99,-99.99,,,0.00,Acu-Link.com,2013-01-10 06:36:00,
2013-01-10 01:51:00,38.3,38.0,30.10,NE,45,0.0,-999.0,99,-99.99,,,0.00,Acu-Link.com,2013-01-10 06:51:00,
2013-01-10 02:07:00,38.5,38.2,30.09,East,90,0.0,-999.0,99,-99.99,,,0.00,Acu-Link.com,2013-01-10 07:07:00,
2013-01-10 02:22:00,38.5,38.2,30.10,NE,45,0.0,-999.0,99,-99.99,,,0.00,Acu-Link.com,2013-01-10 07:22:00,
2013-01-10 02:37:00,38.8,38.5,30.09,ENE,67,0.0,-999.0,99,-99.99,,,0.00,Acu-Link.com,2013-01-10 07:37:00,
2013-01-10 02:53:00,38.8,38.5,30.10,East,90,0.0,-999.0,99,-99.99,,,0.00,Acu-Link.com,2013-01-10 07:53:00,
2013-01-10 03:08:00,38.7,38.4,30.10,ENE,67,2.2,-999.0,99,-99.99,,,0.00,Acu-Link.com,2013-01-10 08:08:00,
2013-01-10 03:23:00,38.5,38.2,30.10,ENE,67,0.0,-999.0,99,-99.99,,,0.00,Acu-Link.com,2013-01-10 08:23:00,
2013-01-10 03:39:00,38.1,37.8,30.09,ENE,67,1.7,-999.0,99,-99.99,,,0.00,Acu-Link.com,2013-01-10 08:39:00,
2013-01-10 03:54:00,37.9,37.6,30.09,ENE,67,2.2,-999.0,99,-99.99,,,0.00,Acu-Link.com,2013-01-10 08:54:00,
2013-01-10 04:09:00,37.8,37.5,30.09,East,90,1.7,-999.0,99,-99.99,,,0.00,Acu-Link.com,2013-01-10 09:09:00,
2013-01-10 04:24:00,37.8,37.5,30.08,NE,45,0.0,-999.0,99,-99.99,,,0.00,Acu-Link.com,2013-01-10 09:24:00,
2013-01-10 04:39:00,38.1,37.8,30.08,NE,45,0.0,-999.0,99,-99.99,,,0.00,Acu-Link.com,2013-01-10 09:39:00,
2013-01-10 04:54:00,38.3,38.0,30.06,ENE,67,2.7,-999.0,99,-99.99,,,0.00,Acu-Link.com,2013-01-10 09:54:00,
2013-01-10 05:10:00,38.7,37.9,30.05,ENE,67,1.7,-999.0,97,-99.99,,,0.00,Acu-Link.com,2013-01-10 10:10:00,
2013-01-10 05:25:00,38.8,37.5,30.05,NE,45,2.7,-999.0,95,-99.99,,,0.00,Acu-Link.com,2013-01-10 10:25:00,
2013-01-10 05:40:00,39.4,37.5,30.04,NE,45,2.2,-999.0,93,-99.99,,,0.00,Acu-Link.com,2013-01-10 10:40:00,
2013-01-10 05:56:00,39.7,37.3,30.05,NE,45,2.2,-999.0,91,-99.99,,,0.00,Acu-Link.com,2013-01-10 10:56:00,
2013-01-10 06:11:00,40.1,37.4,30.05,ENE,67,2.2,-999.0,90,-99.99,,,0.00,Acu-Link.com,2013-01-10 11:11:00,
2013-01-10 06:26:00,40.6,37.6,30.05,ENE,67,2.7,-999.0,89,-99.99,,,0.00,Acu-Link.com,2013-01-10 11:26:00,
2013-01-10 06:42:00,40.8,37.8,30.06,NE,45,1.7,-999.0,89,-99.99,,,0.00,Acu-Link.com,2013-01-10 11:42:00,
2013-01-10 06:57:00,40.6,37.6,30.05,ESE,112,3.7,-999.0,89,-99.99,,,0.00,Acu-Link.com,2013-01-10 11:57:00,
2013-01-10 07:12:00,41.2,37.9,30.06,NNE,22,2.2,-999.0,88,-99.99,,,0.00,Acu-Link.com,2013-01-10 12:12:00,
2013-01-10 07:28:00,41.4,38.1,30.05,ENE,67,3.7,-999.0,88,-99.99,,,0.00,Acu-Link.com,2013-01-10 12:28:00,
2013-01-10 07:43:00,41.4,37.5,30.03,ENE,67,3.2,-999.0,86,-99.99,,,0.00,Acu-Link.com,2013-01-10 12:43:00,
2013-01-10 07:58:00,41.5,37.6,30.03,SE,135,5.3,-999.0,86,-99.99,,,0.00,Acu-Link.com,2013-01-10 12:58:00,
2013-01-10 08:14:00,41.7,37.5,30.04,NNW,337,3.2,-999.0,85,-99.99,,,0.00,Acu-Link.com,2013-01-10 13:14:00,
2013-01-10 08:29:00,41.7,37.8,30.04,NE,45,3.7,-999.0,86,-99.99,,,0.00,Acu-Link.com,2013-01-10 13:29:00,
2013-01-10 08:44:00,41.9,37.7,30.04,ESE,112,3.7,-999.0,85,-99.99,,,0.00,Acu-Link.com,2013-01-10 13:44:00,
2013-01-10 09:00:00,41.9,37.4,30.04,ENE,67,3.2,-999.0,84,-99.99,,,0.00,Acu-Link.com,2013-01-10 14:00:00,
2013-01-10 09:15:00,41.9,37.1,30.04,ESE,112,2.7,-999.0,83,-99.99,,,0.00,Acu-Link.com,2013-01-10 14:15:00,
2013-01-10 09:30:00,41.9,36.5,30.03,North,0,3.7,-999.0,81,-99.99,,,0.00,Acu-Link.com,2013-01-10 14:30:00,
2013-01-10 09:45:00,42.3,36.6,30.04,SE,135,2.7,-999.0,80,-99.99,,,0.00,Acu-Link.com,2013-01-10 14:45:00,
2013-01-10 10:00:00,42.4,36.7,30.03,SE,135,1.7,-999.0,80,-99.99,,,0.00,Acu-Link.com,2013-01-10 15:00:00,
2013-01-10 10:16:00,42.6,36.9,30.04,WNW,292,2.2,-999.0,80,-99.99,,,0.00,Acu-Link.com,2013-01-10 15:16:00,
2013-01-10 10:31:00,43.2,38.1,30.03,NNE,22,1.7,-999.0,82,-99.99,,,0.00,Acu-Link.com,2013-01-10 15:31:00,
2013-01-10 10:46:00,43.2,38.7,30.02,ENE,67,2.2,-999.0,84,-99.99,,,0.00,Acu-Link.com,2013-01-10 15:46:00,
2013-01-10 11:02:00,43.2,39.0,30.02,ENE,67,2.7,-999.0,85,-99.99,,,0.00,Acu-Link.com,2013-01-10 16:02:00,
2013-01-10 11:17:00,42.6,40.2,30.02,WSW,247,0.0,-999.0,91,-99.99,,,0.00,Acu-Link.com,2013-01-10 16:17:00,
2013-01-10 11:32:00,42.3,40.7,30.00,East,90,2.7,-999.0,94,-99.99,,,0.00,Acu-Link.com,2013-01-10 16:32:00,
2013-01-10 11:48:00,42.3,40.7,29.98,NE,45,2.7,-999.0,94,-99.99,,,0.00,Acu-Link.com,2013-01-10 16:48:00,
2013-01-10 12:03:00,42.8,41.2,29.98,NE,45,3.7,-999.0,94,-99.99,,,0.00,Acu-Link.com,2013-01-10 17:03:00,
2013-01-10 12:18:00,43.2,41.6,29.96,East,90,3.2,-999.0,94,-99.99,,,0.01,Acu-Link.com,2013-01-10 17:18:00,
2013-01-10 12:34:00,43.9,42.3,29.95,NNW,337,3.2,-999.0,94,-99.99,,,0.01,Acu-Link.com,2013-01-10 17:34:00,
2013-01-10 12:49:00,44.6,43.0,29.94,NE,45,2.7,-999.0,94,-99.99,,,0.01,Acu-Link.com,2013-01-10 17:49:00,
2013-01-10 13:04:00,45.7,43.5,29.93,NNE,22,2.7,-999.0,92,-99.99,,,0.01,Acu-Link.com,2013-01-10 18:04:00,
2013-01-10 13:20:00,46.2,44.0,29.93,NE,45,3.2,-999.0,92,-99.99,,,0.01,Acu-Link.com,2013-01-10 18:20:00,
2013-01-10 13:35:00,46.8,44.0,29.92,NE,45,3.7,-999.0,90,-99.99,,,0.01,Acu-Link.com,2013-01-10 18:35:00,
2013-01-10 13:50:00,46.2,43.4,29.91,NE,45,3.7,-999.0,90,-99.99,,,0.01,Acu-Link.com,2013-01-10 18:50:00,
2013-01-10 14:06:00,46.2,44.0,29.90,NE,45,2.7,-999.0,92,-99.99,,,0.01,Acu-Link.com,2013-01-10 19:06:00,
2013-01-10 14:21:00,47.1,44.0,29.90,SE,135,2.7,-999.0,89,-99.99,,,0.01,Acu-Link.com,2013-01-10 19:21:00,
2013-01-10 14:36:00,47.3,44.5,29.89,ESE,112,1.7,-999.0,90,-99.99,,,0.01,Acu-Link.com,2013-01-10 19:36:00,
2013-01-10 15:07:00,46.6,45.2,29.88,SE,135,2.2,-999.0,95,-99.99,,,0.02,Acu-Link.com,2013-01-10 20:07:00,
2013-01-10 15:22:00,46.9,45.8,29.87,NNE,22,2.2,-999.0,96,-99.99,,,0.02,Acu-Link.com,2013-01-10 20:22:00,
2013-01-10 15:37:00,46.9,45.5,29.86,NE,45,1.7,-999.0,95,-99.99,,,0.03,Acu-Link.com,2013-01-10 20:37:00,
2013-01-10 15:53:00,47.3,45.7,29.87,ENE,67,1.7,-999.0,94,-99.99,,,0.03,Acu-Link.com,2013-01-10 20:53:00,
2013-01-10 16:08:00,48.0,45.8,29.87,SE,135,2.2,-999.0,92,-99.99,,,0.03,Acu-Link.com,2013-01-10 21:08:00,
2013-01-10 16:23:00,49.3,46.2,29.86,SE,135,1.7,-999.0,89,-99.99,,,0.03,Acu-Link.com,2013-01-10 21:23:00,
2013-01-10 16:54:00,48.9,46.1,29.85,NE,45,1.1,-999.0,90,-99.99,,,0.03,Acu-Link.com,2013-01-10 21:54:00,
2013-01-10 17:09:00,48.6,46.1,29.85,ESE,112,2.2,-999.0,91,-99.99,,,0.03,Acu-Link.com,2013-01-10 22:09:00,
2013-01-10 17:25:00,48.4,45.9,29.84,ENE,67,2.7,-999.0,91,-99.99,,,0.03,Acu-Link.com,2013-01-10 22:25:00,
2013-01-10 17:40:00,48.0,45.5,29.84,ESE,112,2.2,-999.0,91,-99.99,,,0.03,Acu-Link.com,2013-01-10 22:40:00,
2013-01-10 17:55:00,47.7,45.2,29.83,ESE,112,1.7,-999.0,91,-99.99,,,0.03,Acu-Link.com,2013-01-10 22:55:00,
2013-01-10 18:11:00,47.3,45.1,29.83,ESE,112,1.7,-999.0,92,-99.99,,,0.03,Acu-Link.com,2013-01-10 23:11:00,
2013-01-10 18:26:00,46.6,44.7,29.82,ESE,112,1.7,-999.0,93,-99.99,,,0.03,Acu-Link.com,2013-01-10 23:26:00,
2013-01-10 18:41:00,46.6,45.0,29.82,ESE,112,2.2,-999.0,94,-99.99,,,0.03,Acu-Link.com,2013-01-10 23:41:00,
2013-01-10 18:56:00,46.6,45.0,29.81,SSE,157,2.2,-999.0,94,-99.99,,,0.03,Acu-Link.com,2013-01-10 23:56:00,
2013-01-10 19:12:00,46.6,44.7,29.81,ESE,112,1.1,-999.0,93,-99.99,,,0.03,Acu-Link.com,2013-01-11 00:12:00,
2013-01-10 19:27:00,47.1,44.9,29.80,SE,135,1.7,-999.0,92,-99.99,,,0.03,Acu-Link.com,2013-01-11 00:27:00,
2013-01-10 19:42:00,47.3,45.1,29.79,SE,135,2.7,-999.0,92,-99.99,,,0.03,Acu-Link.com,2013-01-11 00:42:00,
2013-01-10 19:58:00,47.8,45.6,29.78,SE,135,2.7,-999.0,92,-99.99,,,0.03,Acu-Link.com,2013-01-11 00:58:00,
2013-01-10 20:13:00,47.8,45.6,29.77,NE,45,1.7,-999.0,92,-99.99,,,0.03,Acu-Link.com,2013-01-11 01:13:00,
2013-01-10 20:28:00,48.0,45.8,29.77,SE,135,2.2,-999.0,92,-99.99,,,0.03,Acu-Link.com,2013-01-11 01:28:00,
2013-01-10 20:44:00,48.4,46.2,29.76,SE,135,2.7,-999.0,92,-99.99,,,0.03,Acu-Link.com,2013-01-11 01:44:00,
2013-01-10 20:59:00,48.6,46.4,29.76,ESE,112,2.7,-999.0,92,-99.99,,,0.03,Acu-Link.com,2013-01-11 01:59:00,
2013-01-10 21:14:00,49.3,46.8,29.74,SSE,157,3.7,-999.0,91,-99.99,,,0.03,Acu-Link.com,2013-01-11 02:14:00,
2013-01-10 21:30:00,49.5,46.7,29.74,South,180,5.3,-999.0,90,-99.99,,,0.03,Acu-Link.com,2013-01-11 02:30:00,
2013-01-10 21:45:00,49.6,46.8,29.73,SSE,157,5.3,-999.0,90,-99.99,,,0.03,Acu-Link.com,2013-01-11 02:45:00,
2013-01-10 22:00:00,49.8,47.0,29.73,ESE,112,3.7,-999.0,90,-99.99,,,0.03,Acu-Link.com,2013-01-11 03:00:00,
2013-01-10 22:16:00,50.2,47.4,29.72,SSE,157,7.8,-999.0,90,-99.99,,,0.03,Acu-Link.com,2013-01-11 03:16:00,
2013-01-10 22:31:00,50.4,47.6,29.71,South,180,4.2,-999.0,90,-99.99,,,0.03,Acu-Link.com,2013-01-11 03:31:00,
2013-01-10 22:46:00,50.4,47.6,29.70,SSE,157,4.2,-999.0,90,-99.99,,,0.03,Acu-Link.com,2013-01-11 03:46:00,
2013-01-10 23:01:00,50.2,47.4,29.69,ESE,112,3.7,-999.0,90,-99.99,,,0.03,Acu-Link.com,2013-01-11 04:01:00,
2013-01-10 23:17:00,50.9,48.1,29.69,SSE,157,6.3,-999.0,90,-99.99,,,0.03,Acu-Link.com,2013-01-11 04:17:00,
2013-01-10 23:32:00,51.1,48.0,29.69,SE,135,4.2,-999.0,89,-99.99,,,0.03,Acu-Link.com,2013-01-11 04:32:00,
2013-01-10 23:47:00,51.3,48.2,29.68,ESE,112,4.7,-999.0,89,-99.99,,,0.03,Acu-Link.com,2013-01-11 04:47:00,